Time;durP1;ratioP1;P1;durP2;ratioP2;P2;SDS_P1;SDS_P2;PMS_P1;PMS_P2;Temp;Humidity;BMP_temperature;BMP_pressure;BME280_temperature;BME280_humidity;BME280_pressure;Samples;Min_cycle;Max_cycle;Signal;HPM_P1;HPM_P2
2024/03/10 00:00:25;;;;;;;;;;;;;;;6.21;62.66;99979.66;5054174;28;19912;-84
2024/03/10 00:02:51;;;;;;;;;;;;;;;6.24;63.27;99982.00;5054162;28;19920;-84
2024/03/10 00:05:16;;;;;;;;;;;;;;;6.24;62.92;99969.72;5054452;28;19943;-83
2024/03/10 00:07:42;;;;;;;;;;;;;;;6.27;63.09;99982.56;5054286;28;20393;-84
2024/03/10 00:10:09;;;;;;;;;;;;;;;6.23;62.87;99981.19;5054143;28;19966;-85
2024/03/10 00:12:34;;;;;;;;;;;;;;;6.22;62.78;99979.53;5052899;28;20440;-84
2024/03/10 00:14:59;;;;;;;;;;;;;;;6.17;62.69;99976.50;5054184;28;20003;-85
2024/03/10 00:17:25;;;;;;;;;;;;;;;6.18;63.16;99970.28;5054202;28;19916;-83
2024/03/10 00:19:52;;;;;;;;;;;;;;;6.22;62.98;99971.66;5054043;28;20435;-85
2024/03/10 00:22:17;;;;;;;;;;;;;;;6.19;62.32;99974.56;5052817;28;19913;-83
2024/03/10 00:24:42;;;;;;;;;;;;;;;6.22;62.54;99963.78;5054077;28;20404;-84
2024/03/10 00:27:08;;;;;;;;;;;;;;;6.24;63.03;99964.47;5054082;28;19917;-84
2024/03/10 00:29:34;;;;;;;;;;;;;;;6.24;62.46;99958.41;5054183;28;19927;-83
2024/03/10 00:31:59;;;;;;;;;;;;;;;6.22;62.50;99949.84;5054091;28;19922;-84
2024/03/10 00:34:24;;;;;;;;;;;;;;;6.22;62.51;99958.56;5054065;28;19913;-83
2024/03/10 00:36:50;;;;;;;;;;;;;;;6.23;62.33;99954.13;5053829;28;19924;-84
2024/03/10 00:39:15;;;;;;;;;;;;;;;6.18;62.60;99959.78;5053427;28;19943;-83
2024/03/10 00:41:40;;;;;;;;;;;;;;;6.20;62.48;99957.03;5053578;28;19936;-83
2024/03/10 00:44:06;;;;;;;;;;;;;;;6.21;62.74;99954.28;5053666;28;19913;-85
2024/03/10 00:46:31;;;;;;;;;;;;;;;6.22;62.83;99945.44;5053532;28;19988;-85
2024/03/10 00:48:58;;;;;;;;;;;;;;;6.23;62.57;99946.25;5053478;28;20275;-84
2024/03/10 00:51:24;;;;;;;;;;;;;;;6.24;62.48;99946.13;5053373;28;19972;-85
2024/03/10 00:53:49;;;;;;;;;;;;;;;6.22;62.53;99947.22;5053583;28;19913;-85
2024/03/10 00:56:18;;;;;;;;;;;;;;;6.24;62.70;99937.44;5053328;28;20349;-85
2024/03/10 00:58:43;;;;;;;;;;;;;;;6.28;62.45;99939.63;5054368;28;19990;-85
2024/03/10 01:01:09;;;;;;;;;;;;;;;6.27;62.36;99940.59;5054458;28;20390;-85
2024/03/10 01:03:34;;;;;;;;;;;;;;;6.32;62.69;99935.75;5054336;28;19920;-84
2024/03/10 01:06:02;;;;;;;;;;;;;;;6.34;62.51;99941.69;5053117;28;20248;-84
2024/03/10 01:08:27;;;;;;;;;;;;;;;6.31;62.54;99934.09;5053459;28;20003;-84
2024/03/10 01:10:52;;;;;;;;;;;;;;;6.33;62.39;99939.22;5053005;28;19967;-85
2024/03/10 01:13:17;;;;;;;;;;;;;;;6.35;62.66;99934.66;5051727;28;20356;-85
2024/03/10 01:15:43;;;;;;;;;;;;;;;6.36;62.88;99926.63;5053062;28;19956;-84
2024/03/10 01:18:08;;;;;;;;;;;;;;;6.35;63.03;99919.75;5052940;28;19920;-84
2024/03/10 01:20:34;;;;;;;;;;;;;;;6.38;62.60;99924.72;5053154;28;19963;-85
2024/03/10 01:22:59;;;;;;;;;;;;;;;6.40;62.74;99929.81;5052816;28;19936;-84
2024/03/10 01:25:24;;;;;;;;;;;;;;;6.38;62.75;99924.72;5052750;28;20011;-85
2024/03/10 01:27:49;;;;;;;;;;;;;;;6.38;63.20;99929.94;5051561;28;19947;-85
2024/03/10 01:30:15;;;;;;;;;;;;;;;6.39;62.79;99930.78;5051419;28;19913;-84
2024/03/10 01:32:40;;;;;;;;;;;;;;;6.43;62.62;99931.31;5051397;28;19913;-84
2024/03/10 01:35:05;;;;;;;;;;;;;;;6.48;62.81;99929.94;5052863;28;19913;-83
2024/03/10 01:37:31;;;;;;;;;;;;;;;6.53;62.64;99929.50;5052607;28;20003;-85
2024/03/10 01:39:56;;;;;;;;;;;;;;;6.52;63.00;99938.34;5052753;28;19991;-83
2024/03/10 01:42:22;;;;;;;;;;;;;;;6.53;63.05;99934.75;5052422;28;19912;-84
2024/03/10 01:44:47;;;;;;;;;;;;;;;6.50;63.15;99929.78;5051006;28;19912;-84
2024/03/10 01:47:12;;;;;;;;;;;;;;;6.51;62.96;99927.00;5052252;28;19913;-83
2024/03/10 01:49:38;;;;;;;;;;;;;;;6.50;62.73;99927.16;5051122;28;19982;-85
2024/03/10 01:52:03;;;;;;;;;;;;;;;6.48;62.80;99929.09;5052373;28;19912;-85
2024/03/10 01:54:31;;;;;;;;;;;;;;;6.48;62.84;99922.06;5052319;28;19913;-84
2024/03/10 01:56:58;;;;;;;;;;;;;;;6.44;62.72;99925.94;5052055;28;20313;-83
2024/03/10 01:59:24;;;;;;;;;;;;;;;6.46;62.82;99936.28;5051964;28;19913;-85
2024/03/10 02:01:50;;;;;;;;;;;;;;;6.49;63.01;99928.13;5051689;28;19928;-85
2024/03/10 02:04:16;;;;;;;;;;;;;;;6.45;63.05;99934.63;5052194;28;19968;-84
2024/03/10 02:06:45;;;;;;;;;;;;;;;6.43;63.30;99923.44;5052181;28;19917;-84
2024/03/10 02:09:12;;;;;;;;;;;;;;;6.39;63.95;99930.78;5051477;28;19920;-85
2024/03/10 02:11:37;;;;;;;;;;;;;;;6.40;63.86;99923.75;5051978;28;19913;-85
2024/03/10 02:14:03;;;;;;;;;;;;;;;6.33;64.06;99936.59;5051912;28;20251;-85
2024/03/10 02:16:28;;;;;;;;;;;;;;;6.27;64.38;99937.16;5051752;28;20000;-85
2024/03/10 02:18:53;;;;;;;;;;;;;;;6.19;64.94;99935.22;5051901;28;19920;-84
2024/03/10 02:21:21;;;;;;;;;;;;;;;6.17;65.02;99942.41;5051927;28;19912;-85
2024/03/10 02:23:55;;;;;;;;;;;;;;;6.18;64.63;99944.06;5052103;28;20406;-83
2024/03/10 02:26:21;;;;;;;;;;;;;;;6.22;64.81;99942.00;5051778;28;19936;-86
2024/03/10 02:28:57;;;;;;;;;;;;;;;6.24;64.54;99946.13;5051721;28;20386;-83
2024/03/10 02:47:49;;;;;;;;;;;;;;;6.09;65.52;99952.78;5052030;28;19923;-83
2024/03/10 02:50:14;;;;;;;;;;;;;;;6.06;65.39;99934.69;5051444;28;19913;-83
2024/03/10 02:52:39;;;;;;;;;;;;;;;6.00;65.60;99932.63;5051558;28;19920;-84
2024/03/10 02:55:06;;;;;;;;;;;;;;;5.98;65.04;99929.31;5051270;28;20378;-83
2024/03/10 02:57:33;;;;;;;;;;;;;;;5.96;65.16;99926.84;5051088;28;19923;-83
2024/03/10 02:59:58;;;;;;;;;;;;;;;5.95;65.53;99930.44;5051418;28;19913;-83
2024/03/10 03:02:24;;;;;;;;;;;;;;;5.93;66.01;99923.66;5051077;28;20464;-85
2024/03/10 03:04:49;;;;;;;;;;;;;;;5.93;65.79;99944.59;5051055;28;19939;-84
2024/03/10 03:07:17;;;;;;;;;;;;;;;5.90;65.76;99932.63;5050907;28;19915;-84
2024/03/10 03:09:43;;;;;;;;;;;;;;;5.92;65.79;99929.84;5051295;28;19920;-83
2024/03/10 03:12:09;;;;;;;;;;;;;;;5.95;65.79;99935.69;5051048;28;19916;-84
2024/03/10 03:14:35;;;;;;;;;;;;;;;6.03;64.79;99927.13;5051204;28;19909;-84
2024/03/10 03:17:05;;;;;;;;;;;;;;;6.06;64.95;99934.69;5050974;28;19917;-83
2024/03/10 03:19:32;;;;;;;;;;;;;;;6.08;65.43;99930.16;5051048;28;19972;-85
2024/03/10 03:21:58;;;;;;;;;;;;;;;6.08;65.33;99930.16;5052992;28;19948;-84
2024/03/10 03:24:23;;;;;;;;;;;;;;;6.10;64.29;99916.91;5055257;28;20420;-83
2024/03/10 03:26:48;;;;;;;;;;;;;;;6.08;65.27;99919.66;5055130;28;20381;-84
2024/03/10 03:29:13;;;;;;;;;;;;;;;6.04;64.59;99920.91;5055125;28;19913;-84
2024/03/10 03:31:39;;;;;;;;;;;;;;;6.03;65.27;99921.88;5055103;28;19912;-85
2024/03/10 03:34:04;;;;;;;;;;;;;;;6.03;64.79;99927.13;5055069;28;20408;-83
2024/03/10 03:36:31;;;;;;;;;;;;;;;6.00;65.43;99922.16;5054882;28;20312;-84
2024/03/10 03:38:56;;;;;;;;;;;;;;;5.97;64.65;99925.06;5054862;28;19920;-85
2024/03/10 03:41:22;;;;;;;;;;;;;;;5.94;65.49;99918.25;5054869;28;19912;-84
2024/03/10 03:43:48;;;;;;;;;;;;;;;5.99;65.11;99918.69;5053433;28;19999;-84
2024/03/10 03:46:13;;;;;;;;;;;;;;;5.98;64.86;99914.44;5054844;28;19916;-84
2024/03/10 03:48:38;;;;;;;;;;;;;;;6.00;64.92;99920.34;5053339;28;20553;-83
2024/03/10 03:51:05;;;;;;;;;;;;;;;5.99;64.94;99910.84;5054527;28;19909;-85
2024/03/10 03:53:30;;;;;;;;;;;;;;;5.97;65.06;99907.53;5054617;28;19975;-85
2024/03/10 03:55:55;;;;;;;;;;;;;;;6.02;65.09;99907.13;5054439;28;19917;-83
2024/03/10 03:58:21;;;;;;;;;;;;;;;6.04;64.89;99907.81;5054472;28;19931;-83
2024/03/10 04:00:47;;;;;;;;;;;;;;;6.03;65.23;99904.34;5053029;28;19920;-84
2024/03/10 04:03:12;;;;;;;;;;;;;;;6.04;65.34;99900.75;5054386;28;19920;-83
2024/03/10 04:05:38;;;;;;;;;;;;;;;6.05;65.17;99909.44;5054549;28;20325;-83
2024/03/10 04:08:04;;;;;;;;;;;;;;;6.03;65.83;99906.16;5054333;28;19970;-84
2024/03/10 04:10:30;;;;;;;;;;;;;;;6.02;65.40;99907.13;5054315;28;19919;-83
2024/03/10 04:12:55;;;;;;;;;;;;;;;6.05;64.72;99902.41;5054509;28;19913;-83
2024/03/10 04:15:21;;;;;;;;;;;;;;;6.01;65.72;99906.28;5054353;28;20337;-84
2024/03/10 04:17:46;;;;;;;;;;;;;;;6.02;64.96;99907.13;5054145;28;19921;-83
2024/03/10 04:20:13;;;;;;;;;;;;;;;6.00;65.01;99903.81;5054009;28;19913;-83
2024/03/10 04:22:41;;;;;;;;;;;;;;;5.98;65.59;99898.69;5052625;28;19913;-83
2024/03/10 04:25:07;;;;;;;;;;;;;;;5.99;65.62;99904.78;5053977;28;19948;-83
2024/03/10 04:27:34;;;;;;;;;;;;;;;6.01;65.62;99905.47;5053509;28;20357;-83
2024/03/10 04:29:59;;;;;;;;;;;;;;;5.99;65.21;99908.22;5053662;28;19913;-84
2024/03/10 04:32:24;;;;;;;;;;;;;;;6.01;66.14;99905.47;5052064;28;20000;-85
2024/03/10 04:34:49;;;;;;;;;;;;;;;6.02;65.40;99912.34;5053880;28;19913;-85
2024/03/10 04:37:15;;;;;;;;;;;;;;;6.01;65.82;99918.56;5053783;28;19971;-85
2024/03/10 04:39:40;;;;;;;;;;;;;;;6.00;65.80;99919.53;5052448;28;19913;-84
2024/03/10 04:42:05;;;;;;;;;;;;;;;5.97;66.57;99922.44;5053600;28;19912;-84
2024/03/10 04:44:31;;;;;;;;;;;;;;;6.00;65.63;99911.66;5053408;28;19920;-85
2024/03/10 04:46:57;;;;;;;;;;;;;;;6.05;65.68;99917.31;5052225;28;19948;-83
2024/03/10 04:49:22;;;;;;;;;;;;;;;6.04;66.15;99918.28;5053475;28;19966;-85
2024/03/10 04:51:48;;;;;;;;;;;;;;;6.11;65.24;99916.75;5053530;28;19999;-84
2024/03/10 04:54:13;;;;;;;;;;;;;;;6.10;66.09;99914.28;5053545;28;20370;-83
2024/03/10 04:56:38;;;;;;;;;;;;;;;6.13;65.23;99911.38;5053380;28;19927;-83
2024/03/10 04:59:03;;;;;;;;;;;;;;;6.16;65.00;99909.28;5053574;28;19917;-85
2024/03/10 05:01:29;;;;;;;;;;;;;;;6.17;65.38;99915.38;5053144;28;19963;-83
2024/03/10 05:03:54;;;;;;;;;;;;;;;6.16;65.34;99911.91;5052057;28;19912;-84
2024/03/10 05:06:20;;;;;;;;;;;;;;;6.15;65.01;99909.44;5051976;28;20111;-84
2024/03/10 05:08:46;;;;;;;;;;;;;;;6.14;65.71;99913.84;5053201;28;19952;-84
2024/03/10 05:11:11;;;;;;;;;;;;;;;6.16;65.24;99900.59;5053413;28;20041;-85
2024/03/10 05:13:36;;;;;;;;;;;;;;;6.11;66.20;99901.03;5053130;28;20054;-83
2024/03/10 05:16:05;;;;;;;;;;;;;;;6.11;66.22;99892.34;5051808;28;19913;-84
2024/03/10 05:18:32;;;;;;;;;;;;;;;6.14;65.50;99882.41;5052971;28;19917;-83
2024/03/10 05:20:57;;;;;;;;;;;;;;;6.15;65.64;99896.34;5052968;28;19919;-83
2024/03/10 05:23:24;;;;;;;;;;;;;;;6.18;66.30;99904.75;5052806;28;20010;-84
2024/03/10 05:25:49;;;;;;;;;;;;;;;6.23;65.73;99910.38;5052783;28;19917;-83
2024/03/10 05:28:15;;;;;;;;;;;;;;;6.27;66.14;99919.63;5052815;28;19912;-85
2024/03/10 05:30:42;;;;;;;;;;;;;;;6.28;65.59;99908.16;5052825;28;19917;-85
2024/03/10 05:33:07;;;;;;;;;;;;;;;6.29;65.83;99925.56;5052871;28;19912;-85
2024/03/10 05:35:33;;;;;;;;;;;;;;;6.33;65.91;99920.84;5052724;28;19920;-85
2024/03/10 05:37:58;;;;;;;;;;;;;;;6.36;66.18;99921.41;5052672;28;19921;-86
2024/03/10 05:40:24;;;;;;;;;;;;;;;6.42;65.72;99934.91;5051371;28;19996;-85
2024/03/10 05:42:49;;;;;;;;;;;;;;;6.41;65.51;99939.34;5051342;28;20007;-85
2024/03/10 05:45:15;;;;;;;;;;;;;;;6.42;65.98;99938.34;5050390;28;19912;-86
2024/03/10 05:47:40;;;;;;;;;;;;;;;6.41;66.39;99947.19;5052233;28;19913;-84
2024/03/10 05:50:06;;;;;;;;;;;;;;;6.44;66.20;99940.84;5052211;28;19917;-83
2024/03/10 05:52:32;;;;;;;;;;;;;;;6.49;65.52;99936.81;5050910;28;19970;-84
2024/03/10 05:54:57;;;;;;;;;;;;;;;6.48;65.20;99937.78;5052381;28;19913;-85
2024/03/10 05:57:22;;;;;;;;;;;;;;;6.47;66.67;99935.31;5052210;28;19924;-83
2024/03/10 05:59:48;;;;;;;;;;;;;;;6.50;66.02;99940.28;5052122;28;19996;-84
2024/03/10 06:02:16;;;;;;;;;;;;;;;6.57;65.24;99941.34;5051964;28;20391;-83
2024/03/10 06:04:41;;;;;;;;;;;;;;;6.61;66.23;99937.47;5052342;28;19919;-86
2024/03/10 06:07:07;;;;;;;;;;;;;;;6.64;65.46;99931.94;5052068;28;20313;-86
2024/03/10 06:09:36;;;;;;;;;;;;;;;6.66;65.09;99933.47;5053330;28;19911;-86
2024/03/10 06:12:02;;;;;;;;;;;;;;;6.61;66.23;99943.56;5052866;28;19924;-84
2024/03/10 06:14:28;;;;;;;;;;;;;;;6.66;66.22;99946.56;5052025;28;19968;-86
2024/03/10 06:16:53;;;;;;;;;;;;;;;6.71;66.33;99945.34;5051737;28;19923;-85
2024/03/10 06:27:30;;;;;;;;;;;;;;;6.91;66.75;99946.94;5051796;28;20348;-85
2024/03/10 06:29:56;;;;;;;;;;;;;;;6.97;65.63;99948.97;5051639;28;19912;-84
2024/03/10 06:32:21;;;;;;;;;;;;;;;6.98;65.67;99946.19;5051611;28;20394;-84
2024/03/10 06:34:46;;;;;;;;;;;;;;;6.95;65.47;99948.28;5051774;28;20393;-85
2024/03/10 06:37:12;;;;;;;;;;;;;;;6.97;65.29;99948.97;5051591;28;19917;-85
2024/03/10 06:39:37;;;;;;;;;;;;;;;6.98;65.65;99942.75;5050270;28;19913;-86
2024/03/10 06:42:03;;;;;;;;;;;;;;;7.01;66.03;99956.41;5051625;28;19955;-84
2024/03/10 06:44:28;;;;;;;;;;;;;;;7.01;66.01;99948.53;5051535;28;20008;-85
2024/03/10 06:46:53;;;;;;;;;;;;;;;7.04;66.08;99951.84;5050304;28;20374;-84
2024/03/10 06:49:19;;;;;;;;;;;;;;;7.04;65.94;99957.91;5051557;28;19920;-85
2024/03/10 06:51:44;;;;;;;;;;;;;;;7.09;66.29;99957.50;5051546;28;19956;-85
2024/03/10 06:54:11;;;;;;;;;;;;;;;7.11;66.85;99956.38;5051467;28;19924;-85
2024/03/10 06:56:36;;;;;;;;;;;;;;;7.15;66.93;99957.72;5051296;28;19999;-85
2024/03/10 06:59:02;;;;;;;;;;;;;;;7.20;66.23;99963.38;5051471;28;20000;-85
2024/03/10 07:01:29;;;;;;;;;;;;;;;7.25;66.69;99963.75;5051343;28;20007;-83
2024/03/10 07:03:54;;;;;;;;;;;;;;;7.26;66.98;99959.34;5051289;28;19931;-86
2024/03/10 07:06:22;;;;;;;;;;;;;;;7.29;67.55;99957.25;5051279;28;20283;-85
2024/03/10 07:08:48;;;;;;;;;;;;;;;7.40;65.75;99964.09;5051186;28;19913;-84
2024/03/10 07:11:13;;;;;;;;;;;;;;;7.44;67.74;99970.72;5051273;28;20038;-84
2024/03/10 07:13:39;;;;;;;;;;;;;;;7.55;66.16;99973.16;5051280;28;19916;-85
2024/03/10 07:16:05;;;;;;;;;;;;;;;7.60;66.98;99980.59;5051203;28;19932;-85
2024/03/10 07:18:31;;;;;;;;;;;;;;;7.64;68.14;99985.41;5049820;28;20300;-84
2024/03/10 07:20:56;;;;;;;;;;;;;;;7.71;68.38;99993.50;5051144;28;19920;-84
2024/03/10 07:23:22;;;;;;;;;;;;;;;7.78;67.84;99997.22;5050995;28;19912;-85
2024/03/10 07:25:47;;;;;;;;;;;;;;;7.86;67.19;99993.81;5050919;28;19913;-85
2024/03/10 07:28:12;;;;;;;;;;;;;;;7.96;66.97;99997.22;5051117;28;19960;-84
2024/03/10 07:30:38;;;;;;;;;;;;;;;8.03;66.64;99997.44;5050923;28;19986;-86
2024/03/10 07:33:03;;;;;;;;;;;;;;;8.09;66.93;100000.28;5051119;28;19943;-85
2024/03/10 07:35:28;;;;;;;;;;;;;;;8.00;66.35;100000.38;5050985;28;19912;-85
2024/03/10 07:37:54;;;;;;;;;;;;;;;7.97;66.96;99998.88;5050963;28;19917;-85
2024/03/10 07:40:20;;;;;;;;;;;;;;;8.02;66.92;99998.41;5050970;28;19913;-86
2024/03/10 07:42:46;;;;;;;;;;;;;;;8.07;66.60;99998.78;5050972;28;20401;-85
2024/03/10 07:45:12;;;;;;;;;;;;;;;8.15;66.51;99991.78;5051001;28;20352;-84
2024/03/10 07:47:38;;;;;;;;;;;;;;;8.21;67.09;99996.47;5050999;28;19969;-85
2024/03/10 07:50:06;;;;;;;;;;;;;;;8.24;66.72;99990.09;5050982;28;19975;-85
2024/03/10 07:52:31;;;;;;;;;;;;;;;8.29;66.96;99990.47;5051001;28;19920;-85
2024/03/10 07:54:57;;;;;;;;;;;;;;;8.34;66.86;99990.03;5051060;28;20302;-85
2024/03/10 07:57:22;;;;;;;;;;;;;;;8.42;66.26;99987.47;5050833;28;20382;-86
2024/03/10 07:59:47;;;;;;;;;;;;;;;8.52;65.35;99980.28;5050741;28;19913;-84
2024/03/10 08:02:14;;;;;;;;;;;;;;;8.55;65.73;99987.88;5050389;28;19925;-85
2024/03/10 08:04:40;;;;;;;;;;;;;;;8.68;66.05;99998.00;5050744;28;19912;-84
2024/03/10 08:07:07;;;;;;;;;;;;;;;8.76;66.05;99992.78;5051335;28;19919;-84
2024/03/10 08:09:33;;;;;;;;;;;;;;;8.82;65.84;99989.53;5054479;28;19962;-84
2024/03/10 08:11:58;;;;;;;;;;;;;;;8.91;65.31;99989.41;5054277;28;19921;-83
2024/03/10 08:14:23;;;;;;;;;;;;;;;9.03;64.09;99979.47;5054570;28;19919;-84
2024/03/10 08:16:49;;;;;;;;;;;;;;;9.09;64.11;99970.94;5054195;28;19929;-84
2024/03/10 08:19:14;;;;;;;;;;;;;;;9.10;63.76;99975.22;5054250;28;19913;-83
2024/03/10 08:21:39;;;;;;;;;;;;;;;9.12;64.82;99982.97;5053850;28;19913;-84
2024/03/10 08:24:06;;;;;;;;;;;;;;;9.22;64.34;99983.66;5053918;28;19916;-83
2024/03/10 08:26:31;;;;;;;;;;;;;;;9.29;64.55;99981.22;5054379;28;19935;-83
2024/03/10 08:28:56;;;;;;;;;;;;;;;9.34;63.64;99979.75;5053922;28;19913;-84
2024/03/10 08:31:21;;;;;;;;;;;;;;;9.40;64.02;99978.31;5053999;28;20382;-83
2024/03/10 08:33:47;;;;;;;;;;;;;;;9.31;63.74;99959.00;5053970;28;19952;-83
2024/03/10 08:36:12;;;;;;;;;;;;;;;9.46;64.27;99978.50;5054039;28;19921;-83
2024/03/10 08:38:37;;;;;;;;;;;;;;;9.52;64.59;99977.03;5053948;28;20015;-82
2024/03/10 08:41:04;;;;;;;;;;;;;;;9.61;65.20;99988.41;5053578;28;19920;-83
2024/03/10 08:43:30;;;;;;;;;;;;;;;9.73;64.25;99989.78;5053601;28;19999;-83
2024/03/10 08:45:57;;;;;;;;;;;;;;;9.79;64.83;99986.50;5053700;28;19944;-83
2024/03/10 08:48:22;;;;;;;;;;;;;;;9.87;64.90;99981.25;5053719;28;19913;-83
2024/03/10 08:50:47;;;;;;;;;;;;;;;9.98;64.60;99986.19;5053640;28;19967;-82
2024/03/10 08:53:13;;;;;;;;;;;;;;;10.09;63.98;99974.50;5053466;28;19913;-83
2024/03/10 08:55:38;;;;;;;;;;;;;;;10.15;63.37;99961.47;5053446;28;19996;-83
2024/03/10 08:58:03;;;;;;;;;;;;;;;10.17;63.71;99972.69;5053391;28;19957;-83
2024/03/10 09:00:30;;;;;;;;;;;;;;;10.21;64.23;99978.50;5053326;28;19912;-83
2024/03/10 09:02:56;;;;;;;;;;;;;;;10.27;63.25;99980.47;5051972;28;19927;-84
2024/03/10 09:05:21;;;;;;;;;;;;;;;10.23;63.67;99965.13;5053226;28;19913;-83
2024/03/10 09:07:47;;;;;;;;;;;;;;;10.32;63.73;99964.13;5053210;28;19920;-83
2024/03/10 09:10:12;;;;;;;;;;;;;;;10.43;63.45;99963.81;5051984;28;19992;-82
2024/03/10 09:12:39;;;;;;;;;;;;;;;10.62;63.87;99973.22;5053205;28;19913;-84
2024/03/10 09:15:05;;;;;;;;;;;;;;;10.75;62.75;99969.06;5053121;28;19913;-84
2024/03/10 09:17:30;;;;;;;;;;;;;;;10.85;63.38;99974.16;5053160;28;19917;-83
2024/03/10 09:19:58;;;;;;;;;;;;;;;11.02;62.60;99964.34;5051979;28;19913;-83
2024/03/10 09:22:23;;;;;;;;;;;;;;;11.23;61.83;99961.16;5053072;28;20457;-84
2024/03/10 09:24:49;;;;;;;;;;;;;;;11.44;61.57;99964.84;5052950;28;20007;-83
2024/03/10 09:27:14;;;;;;;;;;;;;;;11.63;61.63;99968.88;5051509;28;20364;-83
2024/03/10 09:29:39;;;;;;;;;;;;;;;11.82;61.00;99967.63;5052959;28;19912;-83
2024/03/10 09:32:06;;;;;;;;;;;;;;;11.99;60.43;99966.56;5052835;28;19917;-84
2024/03/10 09:34:31;;;;;;;;;;;;;;;12.14;59.97;99961.31;5052843;28;19919;-83
2024/03/10 09:36:56;;;;;;;;;;;;;;;12.26;60.01;99967.81;5052649;28;19917;-84
2024/03/10 09:39:24;;;;;;;;;;;;;;;12.13;59.71;99972.91;5052743;28;19913;-84
2024/03/10 09:41:51;;;;;;;;;;;;;;;12.03;59.69;99967.84;5052658;28;20381;-84
2024/03/10 09:44:20;;;;;;;;;;;;;;;11.89;59.52;99968.59;5051440;28;19912;-84
2024/03/10 09:46:49;;;;;;;;;;;;;;;11.76;59.63;99971.78;5052534;28;19966;-84
2024/03/10 09:49:16;;;;;;;;;;;;;;;11.73;60.05;99960.72;5052459;28;20409;-84
2024/03/10 09:51:45;;;;;;;;;;;;;;;11.72;60.46;99954.59;5051117;28;19963;-84
2024/03/10 09:54:10;;;;;;;;;;;;;;;11.78;60.52;99958.41;5049523;28;20378;-84
2024/03/10 09:56:36;;;;;;;;;;;;;;;11.80;60.30;99955.59;5052238;28;19920;-84
2024/03/10 09:59:03;;;;;;;;;;;;;;;11.82;59.97;99961.53;5052625;28;19928;-84
2024/03/10 10:01:29;;;;;;;;;;;;;;;11.86;60.12;99961.00;5052218;28;19913;-83
2024/03/10 10:03:57;;;;;;;;;;;;;;;11.94;60.07;99945.09;5052406;28;19927;-83
2024/03/10 10:06:22;;;;;;;;;;;;;;;12.08;59.45;99933.72;5052086;28;19913;-84
2024/03/10 10:08:54;;;;;;;;;;;;;;;12.32;59.48;99934.50;5050841;28;20409;-83
2024/03/10 10:11:19;;;;;;;;;;;;;;;12.35;58.90;99934.97;5052044;28;19923;-83
2024/03/10 10:14:04;;;;;;;;;;;;;;;12.37;58.74;99926.84;5052187;28;19996;-83
2024/03/10 10:16:29;;;;;;;;;;;;;;;12.51;58.99;99926.06;5052063;28;19924;-83
2024/03/10 10:18:54;;;;;;;;;;;;;;;12.62;58.24;99919.47;5050737;28;19913;-83
2024/03/10 10:21:22;;;;;;;;;;;;;;;12.60;57.98;99916.19;5051962;28;19912;-83
2024/03/10 10:23:47;;;;;;;;;;;;;;;12.56;58.19;99917.56;5051859;28;20366;-84
2024/03/10 10:26:13;;;;;;;;;;;;;;;12.47;58.43;99908.88;5051726;28;19999;-83
2024/03/10 10:28:41;;;;;;;;;;;;;;;12.52;59.29;99911.81;5050463;28;19955;-84
2024/03/10 10:31:13;;;;;;;;;;;;;;;12.42;58.61;99903.31;5051520;28;19922;-84
2024/03/10 10:33:39;;;;;;;;;;;;;;;12.41;58.36;99905.13;5051744;28;19913;-83
2024/03/10 10:36:05;;;;;;;;;;;;;;;12.84;58.63;99909.81;5050270;28;19920;-83
2024/03/10 10:38:40;;;;;;;;;;;;;;;12.94;57.86;99905.88;5050205;28;20369;-83
2024/03/10 10:41:07;;;;;;;;;;;;;;;12.96;58.14;99911.00;5051722;28;19912;-83
2024/03/10 10:43:38;;;;;;;;;;;;;;;12.82;57.06;99907.38;5051678;28;19912;-83
2024/03/10 10:46:10;;;;;;;;;;;;;;;12.79;57.94;99901.59;5051522;28;19913;-83
2024/03/10 10:48:35;;;;;;;;;;;;;;;12.77;57.99;99900.97;5051449;28;20007;-83
2024/03/10 10:51:02;;;;;;;;;;;;;;;12.83;57.82;99898.41;5051436;28;20429;-83
2024/03/10 10:53:27;;;;;;;;;;;;;;;13.17;57.52;99892.53;5051426;28;19916;-82
2024/03/10 10:55:53;;;;;;;;;;;;;;;13.23;57.79;99875.06;5051221;28;20389;-83
2024/03/10 10:58:21;;;;;;;;;;;;;;;13.27;57.78;99871.84;5051226;28;20332;-83
2024/03/10 11:00:50;;;;;;;;;;;;;;;13.34;57.80;99867.44;5051351;28;20283;-83
2024/03/10 11:03:22;;;;;;;;;;;;;;;13.27;57.73;99866.53;5051367;28;19925;-83
2024/03/10 11:06:15;;;;;;;;;;;;;;;13.57;57.62;99861.97;5049908;28;20360;-83
2024/03/10 11:08:41;;;;;;;;;;;;;;;13.84;57.24;99856.91;5048563;28;20004;-83
2024/03/10 11:11:07;;;;;;;;;;;;;;;13.74;57.23;99851.94;5051104;28;19913;-83
2024/03/10 11:13:33;;;;;;;;;;;;;;;14.08;56.89;99845.06;5051016;28;19913;-83
2024/03/10 11:16:05;;;;;;;;;;;;;;;14.40;56.54;99836.50;5050020;28;19948;-83
2024/03/10 11:18:32;;;;;;;;;;;;;;;14.72;55.58;99837.72;5051406;28;20377;-83
2024/03/10 11:20:58;;;;;;;;;;;;;;;15.00;54.94;99826.22;5051084;28;19955;-83
2024/03/10 11:23:23;;;;;;;;;;;;;;;15.38;54.16;99831.81;5051111;28;19952;-82
2024/03/10 11:25:51;;;;;;;;;;;;;;;15.39;53.94;99794.38;5050021;28;20356;-82
2024/03/10 11:28:25;;;;;;;;;;;;;;;15.73;53.47;99833.34;5051245;28;19913;-82
2024/03/10 11:30:51;;;;;;;;;;;;;;;15.43;53.83;99827.53;5051383;28;19913;-82
2024/03/10 11:33:21;;;;;;;;;;;;;;;15.22;54.27;99825.88;5051296;28;20382;-83
2024/03/10 11:35:46;;;;;;;;;;;;;;;15.33;54.10;99813.81;5051133;28;19912;-82
2024/03/10 11:38:11;;;;;;;;;;;;;;;15.61;53.34;99803.06;5051003;28;19917;-82
2024/03/10 11:40:37;;;;;;;;;;;;;;;15.92;53.50;99805.09;5051122;28;19955;-82
2024/03/10 11:43:02;;;;;;;;;;;;;;;16.17;52.91;99799.94;5052907;28;20313;-82
2024/03/10 11:45:31;;;;;;;;;;;;;;;16.30;52.44;99788.44;5055059;28;19912;-82
2024/03/10 11:47:56;;;;;;;;;;;;;;;16.36;52.27;99780.44;5054701;28;20398;-82
2024/03/10 11:50:22;;;;;;;;;;;;;;;16.49;52.43;99782.25;5053273;28;19923;-83
2024/03/10 11:52:48;;;;;;;;;;;;;;;16.58;51.21;99775.66;5054994;28;19905;-82
2024/03/10 11:55:16;;;;;;;;;;;;;;;16.63;51.61;99765.16;5055038;28;19919;-82
2024/03/10 11:57:42;;;;;;;;;;;;;;;16.60;52.40;99762.94;5053832;28;19923;-82
2024/03/10 12:00:09;;;;;;;;;;;;;;;16.52;51.80;99758.66;5054520;28;19912;-82
2024/03/10 12:02:34;;;;;;;;;;;;;;;16.26;52.07;99749.91;5054520;28;19921;-82
2024/03/10 12:05:01;;;;;;;;;;;;;;;16.06;53.11;99748.13;5054382;28;19913;-82
2024/03/10 12:07:26;;;;;;;;;;;;;;;15.91;53.18;99741.38;5054525;28;19916;-82
2024/03/10 12:09:55;;;;;;;;;;;;;;;15.78;53.01;99742.22;5054361;28;20004;-82
2024/03/10 12:12:28;;;;;;;;;;;;;;;15.75;52.83;99738.13;5052179;28;21324;-82
2024/03/10 12:14:53;;;;;;;;;;;;;;;15.66;53.48;99733.22;5054211;28;20309;-82
2024/03/10 12:17:19;;;;;;;;;;;;;;;15.61;53.92;99738.34;5054099;28;19923;-82
2024/03/10 12:19:44;;;;;;;;;;;;;;;15.57;53.88;99732.56;5054368;28;19913;-82
2024/03/10 12:22:13;;;;;;;;;;;;;;;15.52;54.11;99735.84;5054230;28;19913;-82
2024/03/10 12:24:39;;;;;;;;;;;;;;;15.31;54.01;99728.06;5052804;28;19966;-82
2024/03/10 12:27:05;;;;;;;;;;;;;;;15.29;54.30;99730.09;5053859;28;19920;-82
2024/03/10 12:29:30;;;;;;;;;;;;;;;15.14;54.35;99730.31;5053998;28;20008;-83
2024/03/10 12:31:56;;;;;;;;;;;;;;;15.09;54.67;99729.28;5052600;28;19920;-83
2024/03/10 12:34:21;;;;;;;;;;;;;;;15.08;54.56;99735.63;5052552;28;19920;-82
2024/03/10 12:36:48;;;;;;;;;;;;;;;15.09;54.64;99731.94;5053868;28;19967;-82
2024/03/10 12:39:13;;;;;;;;;;;;;;;15.10;54.76;99721.09;5052647;28;19926;-82
2024/03/10 12:41:39;;;;;;;;;;;;;;;15.10;55.11;99726.41;5053607;28;19999;-82
2024/03/10 12:44:06;;;;;;;;;;;;;;;15.10;55.14;99725.59;5053662;28;19909;-82
2024/03/10 12:46:33;;;;;;;;;;;;;;;15.07;55.14;99728.66;5052508;28;20408;-82
2024/03/10 12:48:59;;;;;;;;;;;;;;;15.07;54.96;99732.13;5053646;28;20317;-83
2024/03/10 12:51:25;;;;;;;;;;;;;;;15.12;54.98;99729.69;5053663;28;20357;-82
2024/03/10 12:53:51;;;;;;;;;;;;;;;15.17;55.12;99721.91;5053397;28;19956;-82
2024/03/10 12:56:16;;;;;;;;;;;;;;;15.21;54.83;99727.66;5053677;28;19912;-82
2024/03/10 12:58:43;;;;;;;;;;;;;;;15.21;54.96;99741.75;5053362;28;19923;-83
2024/03/10 13:01:08;;;;;;;;;;;;;;;15.20;54.83;99740.13;5052230;28;20416;-82
2024/03/10 13:03:34;;;;;;;;;;;;;;;15.22;54.59;99732.75;5053425;28;19994;-82
2024/03/10 13:06:00;;;;;;;;;;;;;;;15.25;54.87;99731.53;5053227;28;20467;-81
2024/03/10 13:08:26;;;;;;;;;;;;;;;15.30;54.87;99726.44;5053348;28;20001;-82
2024/03/10 13:10:51;;;;;;;;;;;;;;;15.37;54.92;99731.75;5051974;28;19991;-80